createdAt,value
2018-12-10T00:00:54.331Z,58.10
2018-12-10T00:03:27.752Z,58.64
2018-12-10T00:05:56.076Z,58.89
2018-12-10T00:08:24.307Z,58.53
2018-12-10T00:10:52.613Z,58.38
2018-12-10T00:13:20.810Z,58.80
2018-12-10T00:15:49.194Z,58.55
2018-12-10T00:18:17.414Z,58.22
2018-12-10T00:20:45.702Z,57.88
2018-12-10T00:23:13.992Z,57.95
2018-12-10T00:25:42.187Z,57.50
2018-12-10T00:28:10.386Z,57.34
2018-12-10T00:30:38.637Z,57.71
2018-12-10T00:33:06.825Z,57.76
2018-12-10T00:35:35.048Z,57.46
2018-12-10T00:38:03.254Z,57.49
2018-12-10T00:40:31.758Z,57.45
2018-12-10T00:43:00.040Z,57.31
2018-12-10T00:45:28.263Z,57.18
2018-12-10T00:47:56.443Z,57.61
2018-12-10T00:50:24.825Z,57.33
2018-12-10T00:52:53.018Z,57.22
2018-12-10T00:55:21.209Z,57.62
2018-12-10T00:57:49.575Z,57.82
2018-12-10T01:00:17.800Z,58.03
2018-12-10T01:02:46.185Z,57.81
2018-12-10T01:05:14.470Z,57.56
2018-12-10T01:07:42.677Z,57.35
2018-12-10T01:10:10.886Z,57.69
2018-12-10T01:12:39.098Z,57.54
2018-12-10T01:15:07.380Z,57.72
2018-12-10T01:17:35.691Z,57.53
2018-12-10T01:20:04.066Z,58.22
2018-12-10T01:22:32.357Z,58.09
2018-12-10T01:25:00.555Z,58.01
2018-12-10T01:27:28.820Z,58.14
2018-12-10T01:29:57.046Z,57.66
2018-12-10T01:32:25.244Z,57.71
2018-12-10T01:34:53.442Z,57.49
2018-12-10T01:37:21.659Z,57.89
2018-12-10T01:39:49.856Z,57.65
2018-12-10T01:42:18.055Z,57.44
2018-12-10T01:44:46.321Z,57.55
2018-12-10T01:47:14.527Z,58.13
2018-12-10T01:49:42.843Z,58.06
2018-12-10T01:52:11.048Z,57.53
2018-12-10T01:54:39.346Z,57.71
2018-12-10T01:57:07.776Z,57.45
2018-12-10T01:59:35.990Z,56.67
2018-12-10T02:04:42.048Z,57.56
2018-12-10T02:07:10.204Z,57.03
2018-12-10T02:09:38.421Z,56.40
2018-12-10T02:12:06.676Z,57.11
2018-12-10T02:14:34.833Z,56.53
2018-12-10T02:17:03.188Z,56.62
2018-12-10T02:19:31.448Z,56.07
2018-12-10T02:21:59.605Z,56.30
2018-12-10T02:24:27.774Z,56.26
2018-12-10T02:26:55.921Z,56.62
2018-12-10T02:29:24.168Z,56.21
2018-12-10T02:31:52.347Z,56.10
2018-12-10T02:34:20.507Z,56.37
2018-12-10T02:36:48.698Z,56.25
2018-12-10T02:39:16.940Z,55.59
2018-12-10T02:41:45.185Z,55.54
2018-12-10T02:44:13.392Z,55.07
2018-12-10T02:46:41.664Z,54.96
2018-12-10T02:49:09.832Z,55.04
2018-12-10T02:51:38.009Z,55.21
2018-12-10T02:54:06.166Z,55.20
2018-12-10T02:56:34.352Z,55.52
2018-12-10T02:59:02.660Z,54.76
2018-12-10T03:01:30.828Z,54.17
2018-12-10T03:03:59.004Z,54.89
2018-12-10T03:06:27.301Z,55.32
2018-12-10T03:08:55.639Z,55.08
2018-12-10T03:11:23.822Z,55.33
2018-12-10T03:13:51.995Z,55.35
2018-12-10T03:16:20.146Z,55.35
2018-12-10T03:18:48.450Z,55.41
2018-12-10T03:21:16.733Z,55.38
2018-12-10T03:23:44.900Z,55.03
2018-12-10T03:26:13.077Z,55.72
2018-12-10T03:28:41.221Z,55.42
2018-12-10T03:31:09.533Z,54.92
2018-12-10T03:33:37.703Z,55.11
2018-12-10T03:36:05.892Z,55.35
2018-12-10T03:38:34.041Z,55.15
2018-12-10T03:41:02.228Z,55.19
2018-12-10T03:43:30.513Z,55.27
2018-12-10T03:45:58.677Z,55.38
2018-12-10T03:48:27.065Z,55.48
2018-12-10T03:50:55.358Z,55.33
2018-12-10T03:53:23.519Z,55.77
2018-12-10T03:55:51.809Z,55.28
2018-12-10T03:58:20.052Z,55.18
2018-12-10T04:00:48.303Z,55.31
2018-12-10T04:03:16.626Z,55.22
2018-12-10T04:05:44.997Z,55.40
2018-12-10T04:08:13.377Z,55.69
2018-12-10T04:10:41.570Z,55.85
2018-12-10T04:13:09.914Z,56.14
2018-12-10T04:15:38.301Z,56.70
2018-12-10T04:18:06.704Z,57.66
2018-12-10T04:20:34.858Z,57.51
2018-12-10T04:23:03.038Z,57.87
2018-12-10T04:25:31.268Z,58.27
2018-12-10T04:27:59.457Z,58.28
2018-12-10T04:30:27.606Z,58.59
2018-12-10T04:32:55.762Z,58.26
2018-12-10T04:35:23.960Z,58.11
2018-12-10T04:37:52.205Z,58.27
2018-12-10T04:40:20.352Z,58.67
2018-12-10T04:42:48.500Z,58.26
2018-12-10T04:45:16.837Z,58.87
2018-12-10T04:47:44.989Z,58.90
2018-12-10T04:50:13.146Z,59.10
2018-12-10T04:52:41.298Z,58.71
2018-12-10T04:55:09.529Z,59.23
2018-12-10T04:57:37.689Z,59.15
2018-12-10T05:00:08.370Z,59.01
2018-12-10T05:02:36.688Z,59.27
2018-12-10T05:05:05.148Z,59.65
2018-12-10T05:07:33.296Z,59.71
2018-12-10T05:10:01.441Z,59.62
2018-12-10T05:12:29.664Z,60.28
2018-12-10T05:14:57.805Z,59.79
2018-12-10T05:17:25.973Z,59.95
2018-12-10T05:19:54.116Z,59.98
2018-12-10T05:22:22.287Z,60.00
2018-12-10T05:24:50.433Z,60.47
2018-12-10T05:27:18.594Z,60.55
2018-12-10T05:29:46.777Z,60.55
2018-12-10T05:32:14.922Z,60.38
2018-12-10T05:34:43.132Z,60.75
2018-12-10T05:37:11.367Z,60.39
2018-12-10T05:39:39.606Z,60.65
2018-12-10T05:42:07.749Z,60.25
2018-12-10T05:44:35.936Z,60.12
2018-12-10T05:47:04.181Z,60.50
2018-12-10T05:49:32.349Z,60.39
2018-12-10T05:52:00.494Z,60.44
2018-12-10T05:54:28.913Z,60.13
2018-12-10T05:56:57.273Z,59.61
2018-12-10T05:59:25.432Z,59.65
2018-12-10T06:01:53.862Z,59.26
2018-12-10T06:04:22.015Z,58.69
2018-12-10T06:06:50.169Z,58.81
2018-12-10T06:09:18.414Z,57.93
2018-12-10T06:11:46.664Z,58.32
2018-12-10T06:14:14.848Z,57.75
2018-12-10T06:16:43.189Z,58.19
2018-12-10T06:19:11.390Z,57.90
2018-12-10T06:21:39.548Z,58.21
2018-12-10T06:24:07.693Z,57.98
2018-12-10T06:26:35.854Z,58.10
2018-12-10T06:29:04.180Z,58.48
2018-12-10T06:31:32.422Z,58.52
2018-12-10T06:34:00.571Z,59.23
2018-12-10T06:36:28.719Z,59.31
2018-12-10T06:38:56.868Z,59.50
2018-12-10T06:41:25.188Z,58.90
2018-12-10T06:43:53.342Z,58.23
2018-12-10T06:46:21.825Z,58.50
2018-12-10T06:48:49.993Z,58.33
2018-12-10T06:51:18.204Z,58.26
2018-12-10T06:53:46.396Z,58.71
2018-12-10T06:56:14.561Z,58.67
2018-12-10T06:58:42.791Z,58.04
2018-12-10T07:01:11.037Z,58.51
2018-12-10T07:03:39.181Z,58.32
2018-12-10T07:06:07.344Z,57.99
2018-12-10T07:08:35.496Z,57.83
2018-12-10T07:11:03.741Z,58.28
2018-12-10T07:13:32.044Z,58.12
2018-12-10T07:16:00.280Z,57.86
2018-12-10T07:18:28.596Z,58.25
2018-12-10T07:20:56.825Z,57.82
2018-12-10T07:23:24.976Z,58.26
2018-12-10T07:25:53.139Z,58.10
2018-12-10T07:28:21.372Z,57.75
2018-12-10T07:30:49.527Z,57.59
2018-12-10T07:33:17.772Z,57.50
2018-12-10T07:35:45.917Z,57.42
2018-12-10T07:38:14.257Z,57.55
2018-12-10T07:40:42.493Z,57.44
2018-12-10T07:43:10.657Z,57.00
2018-12-10T07:45:38.844Z,57.05
2018-12-10T07:48:07.024Z,57.41
2018-12-10T07:50:35.191Z,57.44
2018-12-10T07:53:03.355Z,57.17
2018-12-10T07:55:31.520Z,57.48
2018-12-10T07:57:59.729Z,57.58
2018-12-10T08:00:27.889Z,56.93
2018-12-10T08:02:56.049Z,57.01
2018-12-10T08:05:24.201Z,57.11
2018-12-10T08:07:52.360Z,57.20
2018-12-10T08:10:20.508Z,56.61
2018-12-10T08:12:48.752Z,57.19
2018-12-10T08:15:16.963Z,56.50
2018-12-10T08:17:45.213Z,56.79
2018-12-10T08:20:13.476Z,57.27
2018-12-10T08:22:41.633Z,57.46
2018-12-10T08:25:09.857Z,57.58
2018-12-10T08:27:38.018Z,57.50
2018-12-10T08:30:06.345Z,57.24
2018-12-10T08:32:34.524Z,57.28
2018-12-10T08:35:02.862Z,57.28
2018-12-10T08:37:31.006Z,56.86
2018-12-10T08:39:59.191Z,57.26
2018-12-10T08:42:27.532Z,56.90
2018-12-10T08:44:55.689Z,57.37
2018-12-10T08:47:23.836Z,56.72
2018-12-10T08:49:52.004Z,56.79
2018-12-10T08:52:20.148Z,56.19
2018-12-10T08:54:48.305Z,55.89
2018-12-10T08:57:16.586Z,56.41
2018-12-10T08:59:44.894Z,56.12
2018-12-10T09:02:13.085Z,56.04
2018-12-10T09:04:41.344Z,55.89
2018-12-10T09:07:09.492Z,56.00
2018-12-10T09:09:37.692Z,55.80
2018-12-10T09:12:06.036Z,55.18
2018-12-10T09:14:34.268Z,54.96
2018-12-10T09:17:02.520Z,54.94
2018-12-10T09:19:30.772Z,54.78
2018-12-10T09:21:58.916Z,54.69
2018-12-10T09:24:27.068Z,54.89
2018-12-10T09:26:55.244Z,54.30
2018-12-10T09:29:23.389Z,53.92
2018-12-10T09:31:51.728Z,53.80
2018-12-10T09:34:19.873Z,53.78
2018-12-10T09:36:48.029Z,53.79
2018-12-10T09:39:16.259Z,53.82
2018-12-10T09:41:44.506Z,53.54
2018-12-10T09:44:12.736Z,53.38
2018-12-10T09:46:40.892Z,53.29
2018-12-10T09:49:09.153Z,53.06
2018-12-10T09:51:37.394Z,53.02
2018-12-10T09:54:05.568Z,52.76
2018-12-10T09:56:33.734Z,52.72
2018-12-10T09:59:01.884Z,52.49
2018-12-10T10:01:30.133Z,52.40
2018-12-10T10:03:58.316Z,52.24
2018-12-10T10:06:26.560Z,52.24
2018-12-10T10:08:54.784Z,51.78
2018-12-10T10:11:23.081Z,51.62
2018-12-10T10:13:51.234Z,52.08
2018-12-10T10:16:19.393Z,52.03
2018-12-10T10:18:47.544Z,51.74
2018-12-10T10:21:15.705Z,51.98
2018-12-10T10:23:43.967Z,51.87
2018-12-10T10:26:12.130Z,50.64
2018-12-10T10:28:40.449Z,50.76
2018-12-10T10:31:08.611Z,50.82
2018-12-10T10:33:36.836Z,51.28
2018-12-10T10:36:04.996Z,49.88
2018-12-10T10:38:33.141Z,49.94
2018-12-10T10:41:01.298Z,50.56
2018-12-10T10:43:29.460Z,50.79
2018-12-10T10:45:57.729Z,50.15
2018-12-10T10:48:25.969Z,49.86
2018-12-10T10:50:54.220Z,49.32
2018-12-10T10:53:22.376Z,49.53
2018-12-10T10:55:50.566Z,49.72
2018-12-10T10:58:18.721Z,50.18
2018-12-10T11:01:50.117Z,50.29
2018-12-10T11:04:18.281Z,50.76
2018-12-10T11:06:46.426Z,50.62
2018-12-10T11:09:15.637Z,50.16
2018-12-10T11:11:44.031Z,50.11
2018-12-10T11:14:12.209Z,49.96
2018-12-10T11:16:40.361Z,50.39
2018-12-10T11:19:08.624Z,49.91
2018-12-10T11:21:36.804Z,50.52
2018-12-10T11:24:05.216Z,50.34
2018-12-10T11:26:33.610Z,50.54
2018-12-10T11:29:01.793Z,49.90
2018-12-10T11:31:30.037Z,50.52
2018-12-10T11:33:58.261Z,50.29
2018-12-10T11:36:26.497Z,50.63
2018-12-10T11:38:58.055Z,50.12
2018-12-10T11:41:24.949Z,50.50
2018-12-10T11:43:53.132Z,49.97
2018-12-10T11:46:21.425Z,49.89
2018-12-10T11:48:49.589Z,50.14
2018-12-10T11:51:17.777Z,49.82
2018-12-10T11:53:46.078Z,50.09
2018-12-10T11:56:14.397Z,49.66
2018-12-10T11:58:42.564Z,49.37
2018-12-10T12:01:10.853Z,49.58
2018-12-10T12:03:39.246Z,49.74
2018-12-10T12:06:07.573Z,49.27
2018-12-10T12:08:36.512Z,49.78
2018-12-10T12:11:04.960Z,49.11
2018-12-10T12:13:33.344Z,48.95
2018-12-10T12:16:01.541Z,49.40
2018-12-10T12:18:29.745Z,49.41
2018-12-10T12:20:58.117Z,49.07
2018-12-10T12:23:26.271Z,48.27
2018-12-10T12:25:54.429Z,48.85
2018-12-10T12:28:22.620Z,49.12
2018-12-10T12:30:51.024Z,48.57
2018-12-10T12:33:19.181Z,48.60
2018-12-10T12:35:47.360Z,48.51
2018-12-10T12:38:15.544Z,48.85
2018-12-10T12:40:43.697Z,48.56
2018-12-10T12:43:15.820Z,49.17
2018-12-10T12:45:42.001Z,48.29
2018-12-10T12:48:10.436Z,48.06
2018-12-10T12:50:38.723Z,47.58
2018-12-10T12:53:07.060Z,48.40
2018-12-10T12:55:35.229Z,48.31
2018-12-10T12:58:03.738Z,48.55
2018-12-10T13:00:31.901Z,48.25
2018-12-10T13:03:00.056Z,48.75
2018-12-10T13:05:28.213Z,48.89
2018-12-10T13:07:56.364Z,49.09
2018-12-10T13:10:24.504Z,47.64
2018-12-10T13:12:52.665Z,48.65
2018-12-10T13:15:20.811Z,48.34
2018-12-10T13:17:49.232Z,48.20
2018-12-10T13:20:17.541Z,48.34
2018-12-10T13:22:47.597Z,48.70
2018-12-10T13:25:47.030Z,49.15
2018-12-10T13:28:15.193Z,48.48
2018-12-10T13:30:43.421Z,49.35
2018-12-10T13:33:11.773Z,49.04
2018-12-10T13:35:39.927Z,49.20
2018-12-10T13:38:12.410Z,49.56
2018-12-10T13:40:38.316Z,49.66
2018-12-10T13:43:06.523Z,49.02
2018-12-10T13:45:34.664Z,49.16
2018-12-10T13:48:02.824Z,49.54
2018-12-10T13:50:30.988Z,49.19
2018-12-10T13:52:59.140Z,49.42
2018-12-10T13:55:28.978Z,48.78
2018-12-10T13:57:57.436Z,49.27
2018-12-10T14:00:25.584Z,48.87
2018-12-10T14:02:53.741Z,49.17
2018-12-10T14:05:21.980Z,49.68
2018-12-10T14:07:50.241Z,49.51
2018-12-10T14:10:18.689Z,49.93
2018-12-10T14:12:46.947Z,49.48
2018-12-10T14:15:15.106Z,49.78
2018-12-10T14:17:43.432Z,49.63
2018-12-10T14:20:11.752Z,49.39
2018-12-10T14:22:40.000Z,49.81
2018-12-10T14:25:14.569Z,49.70
2018-12-10T14:27:42.729Z,49.87
2018-12-10T14:30:11.359Z,50.25
2018-12-10T14:32:39.615Z,49.92
2018-12-10T14:35:08.017Z,50.76
2018-12-10T14:37:36.266Z,51.05
2018-12-10T14:40:04.847Z,50.94
2018-12-10T14:42:32.998Z,51.20
2018-12-10T14:45:01.434Z,50.50
2018-12-10T14:47:29.638Z,51.07
2018-12-10T14:49:57.954Z,51.89
2018-12-10T14:52:26.172Z,52.07
2018-12-10T14:54:54.408Z,53.71
2018-12-10T14:57:22.621Z,54.09
2018-12-10T14:59:50.783Z,54.70
2018-12-10T15:02:19.040Z,55.63
2018-12-10T15:04:47.209Z,55.38
2018-12-10T15:07:15.382Z,55.86
2018-12-10T15:09:44.127Z,55.97
2018-12-10T15:12:12.315Z,55.93
2018-12-10T15:14:40.640Z,55.81
2018-12-10T15:17:08.780Z,55.76
2018-12-10T15:19:36.932Z,55.66
2018-12-10T15:22:05.173Z,55.39
2018-12-10T15:24:33.323Z,55.59
2018-12-10T15:27:01.460Z,55.77
2018-12-10T15:29:29.688Z,55.22
2018-12-10T15:31:57.848Z,55.33
2018-12-10T15:34:26.039Z,55.31
2018-12-10T15:36:54.196Z,55.70
2018-12-10T15:39:22.384Z,55.32
2018-12-10T15:41:50.941Z,55.29
2018-12-10T15:44:19.141Z,55.59
2018-12-10T15:46:47.304Z,55.12
2018-12-10T15:49:15.610Z,55.04
2018-12-10T15:51:43.748Z,55.67
2018-12-10T15:54:12.047Z,55.29
2018-12-10T15:56:40.343Z,55.16
2018-12-10T15:59:08.492Z,55.43
2018-12-10T16:01:36.896Z,55.13
2018-12-10T16:04:05.148Z,55.11
2018-12-10T16:06:33.332Z,54.86
2018-12-10T16:09:01.500Z,54.90
2018-12-10T16:11:29.653Z,54.97
2018-12-10T16:13:57.793Z,54.56
2018-12-10T16:16:25.944Z,54.81
2018-12-10T16:18:54.401Z,54.89
2018-12-10T16:21:22.580Z,54.50
2018-12-10T16:23:50.752Z,55.35
2018-12-10T16:26:18.940Z,57.14
2018-12-10T16:28:47.101Z,58.39
2018-12-10T16:31:15.337Z,59.06
2018-12-10T16:33:43.552Z,59.38
2018-12-10T16:36:12.824Z,60.85
2018-12-10T16:38:41.452Z,61.19
2018-12-10T16:41:09.844Z,61.50
2018-12-10T16:43:38.082Z,61.13
2018-12-10T16:46:06.397Z,61.04
2018-12-10T16:48:34.549Z,61.01
2018-12-10T16:51:02.792Z,61.09
2018-12-10T16:53:31.013Z,60.97
2018-12-10T16:55:59.393Z,60.75
2018-12-10T16:58:27.573Z,60.87
2018-12-10T17:00:55.859Z,60.58
2018-12-10T17:03:24.147Z,61.15
2018-12-10T17:05:52.389Z,60.69
2018-12-10T17:08:20.572Z,60.74
2018-12-10T17:10:49.060Z,60.60
2018-12-10T17:13:17.224Z,60.90
2018-12-10T17:15:45.501Z,61.22
2018-12-10T17:18:13.796Z,61.03
2018-12-10T17:20:41.948Z,60.98
2018-12-10T17:23:10.140Z,61.06
2018-12-10T17:25:38.305Z,60.97
2018-12-10T17:28:06.548Z,60.56
2018-12-10T17:30:34.747Z,60.49
2018-12-10T17:33:03.044Z,60.48
2018-12-10T17:35:31.201Z,60.23
2018-12-10T17:37:59.445Z,60.51
2018-12-10T17:40:27.695Z,60.29
2018-12-10T17:42:55.933Z,59.94
2018-12-10T17:45:24.249Z,59.99
2018-12-10T17:47:52.401Z,59.61
2018-12-10T17:50:20.665Z,59.97
2018-12-10T17:52:48.953Z,59.44
2018-12-10T17:55:17.228Z,60.03
2018-12-10T17:57:45.512Z,59.62
2018-12-10T18:00:13.988Z,60.09
2018-12-10T18:02:42.198Z,60.00
2018-12-10T18:05:10.444Z,60.32
2018-12-10T18:07:38.700Z,60.06
2018-12-10T18:10:07.680Z,60.35
2018-12-10T18:12:35.824Z,60.46
2018-12-10T18:15:04.789Z,59.74
2018-12-10T18:17:33.041Z,59.74
2018-12-10T18:20:01.220Z,59.79
2018-12-10T18:22:29.432Z,59.35
2018-12-10T18:24:57.684Z,59.30
2018-12-10T18:27:25.879Z,59.69
2018-12-10T18:29:54.033Z,59.12
2018-12-10T18:32:22.209Z,59.39
2018-12-10T18:34:50.377Z,59.04
2018-12-10T18:37:18.545Z,59.09
2018-12-10T18:39:46.845Z,58.79
2018-12-10T18:42:15.009Z,58.78
2018-12-10T18:44:43.186Z,58.55
2018-12-10T18:47:11.344Z,58.47
2018-12-10T18:49:39.516Z,58.22
2018-12-10T18:52:07.800Z,58.51
2018-12-10T18:54:35.992Z,58.69
2018-12-10T18:57:04.248Z,58.06
2018-12-10T18:59:32.436Z,58.37
2018-12-10T19:02:00.595Z,58.40
2018-12-10T19:04:28.788Z,58.18
2018-12-10T19:06:56.937Z,57.59
2018-12-10T19:09:25.280Z,57.92
2018-12-10T19:11:53.832Z,58.00
2018-12-10T19:14:22.148Z,57.93
2018-12-10T19:16:50.371Z,57.54
2018-12-10T19:19:18.544Z,57.40
2018-12-10T19:21:46.760Z,57.37
2018-12-10T19:24:14.906Z,57.21
2018-12-10T19:26:43.193Z,56.99
2018-12-10T19:29:11.344Z,57.16
2018-12-10T19:31:39.564Z,57.13
2018-12-10T19:34:07.709Z,57.42
2018-12-10T19:36:35.984Z,56.87
2018-12-10T19:39:06.728Z,56.62
2018-12-10T19:41:35.204Z,56.34
2018-12-10T19:44:03.579Z,56.72
2018-12-10T19:46:31.765Z,55.47
2018-12-10T19:48:59.908Z,55.77
2018-12-10T19:51:28.109Z,55.82
2018-12-10T19:53:56.265Z,55.69
2018-12-10T19:56:24.484Z,56.00
2018-12-10T19:58:53.139Z,56.47
2018-12-10T20:01:21.543Z,56.54
2018-12-10T20:03:49.784Z,56.35
2018-12-10T20:06:23.524Z,56.79
2018-12-10T20:08:51.848Z,56.62
2018-12-10T20:11:20.164Z,56.50
2018-12-10T20:13:48.317Z,56.91
2018-12-10T20:16:16.472Z,57.20
2018-12-10T20:18:44.669Z,57.97
2018-12-10T20:21:12.869Z,57.83
2018-12-10T20:23:41.021Z,58.11
2018-12-10T20:26:09.185Z,58.25
2018-12-10T20:28:37.329Z,58.45
2018-12-10T20:31:05.687Z,58.84
2018-12-10T20:33:33.941Z,58.20
2018-12-10T20:36:02.214Z,58.31
2018-12-10T20:38:30.504Z,58.58
2018-12-10T20:40:58.757Z,58.32
2018-12-10T20:43:26.936Z,57.97
2018-12-10T20:45:55.328Z,58.42
2018-12-10T20:48:23.500Z,58.38
2018-12-10T20:50:51.656Z,58.10
2018-12-10T20:53:19.844Z,58.15
2018-12-10T20:55:48.011Z,58.34
2018-12-10T20:58:16.280Z,58.08
2018-12-10T21:00:44.580Z,58.31
2018-12-10T21:03:12.753Z,58.19
2018-12-10T21:05:46.241Z,58.08
2018-12-10T21:08:14.420Z,57.97
2018-12-10T21:10:42.593Z,58.13
2018-12-10T21:13:10.766Z,57.99
2018-12-10T21:15:38.984Z,57.67
2018-12-10T21:18:07.163Z,57.91
2018-12-10T21:20:35.332Z,58.33
2018-12-10T21:23:03.828Z,58.30
2018-12-10T21:25:32.092Z,57.67
2018-12-10T21:28:00.401Z,58.16
2018-12-10T21:30:28.554Z,57.67
2018-12-10T21:32:57.241Z,58.26
2018-12-10T21:35:25.524Z,57.70
2018-12-10T21:37:53.670Z,58.00
2018-12-10T21:40:21.824Z,57.25
2018-12-10T21:42:50.036Z,57.58
2018-12-10T21:45:18.216Z,57.12
2018-12-10T21:47:46.392Z,57.22
2018-12-10T21:50:14.786Z,57.21
2018-12-10T21:52:42.940Z,57.39
2018-12-10T21:55:16.775Z,57.08
2018-12-10T21:57:41.433Z,56.68
2018-12-10T22:00:09.740Z,56.27
2018-12-10T22:02:38.068Z,56.33
2018-12-10T22:05:06.500Z,56.61
2018-12-10T22:07:34.861Z,56.19
2018-12-10T22:10:03.153Z,55.80
2018-12-10T22:12:31.309Z,55.64
2018-12-10T22:14:59.489Z,55.56
2018-12-10T22:17:27.666Z,55.94
2018-12-10T22:19:55.840Z,55.48
2018-12-10T22:22:23.997Z,55.63
2018-12-10T22:24:52.200Z,55.29
2018-12-10T22:27:20.468Z,55.89
2018-12-10T22:29:48.776Z,55.92
2018-12-10T22:32:16.940Z,56.17
2018-12-10T22:34:45.185Z,56.27
2018-12-10T22:37:13.457Z,56.21
2018-12-10T22:39:41.650Z,56.13
2018-12-10T22:42:09.811Z,55.89
2018-12-10T22:44:37.963Z,56.00
2018-12-10T22:47:06.180Z,55.94
2018-12-10T22:49:34.348Z,55.52
2018-12-10T22:52:02.526Z,55.46
2018-12-10T22:54:30.688Z,55.85
2018-12-10T22:56:58.876Z,55.26
2018-12-10T22:59:27.040Z,55.29
2018-12-10T23:01:55.341Z,55.63
2018-12-10T23:04:23.492Z,55.73
2018-12-10T23:06:51.645Z,55.43
2018-12-10T23:09:19.796Z,55.28
2018-12-10T23:11:48.144Z,55.37
2018-12-10T23:14:16.296Z,55.22
2018-12-10T23:16:44.590Z,54.98
2018-12-10T23:19:12.753Z,55.32
2018-12-10T23:21:41.048Z,54.81
2018-12-10T23:24:09.195Z,54.92
2018-12-10T23:26:37.394Z,55.50
2018-12-10T23:29:05.669Z,55.54
2018-12-10T23:31:33.832Z,55.57
2018-12-10T23:34:01.988Z,54.97
2018-12-10T23:36:30.198Z,55.43
2018-12-10T23:38:58.332Z,55.00
2018-12-10T23:41:26.584Z,55.51
2018-12-10T23:43:54.804Z,55.19
2018-12-10T23:46:23.076Z,55.03
2018-12-10T23:48:51.384Z,54.99
2018-12-10T23:51:19.537Z,55.39
2018-12-10T23:53:47.716Z,55.00
2018-12-10T23:56:15.880Z,55.58
2018-12-10T23:58:44.116Z,55.23
